createdAt,value
2018-12-07T00:00:58.097Z,9.40
2018-12-07T00:03:26.611Z,9.40
2018-12-07T00:05:55.110Z,9.40
2018-12-07T00:08:23.483Z,9.40
2018-12-07T00:10:52.431Z,9.40
2018-12-07T00:13:20.815Z,9.40
2018-12-07T00:15:49.170Z,9.40
2018-12-07T00:18:17.582Z,9.40
2018-12-07T00:20:45.930Z,9.40
2018-12-07T00:23:14.435Z,9.40
2018-12-07T00:25:43.194Z,9.40
2018-12-07T00:28:11.847Z,9.40
2018-12-07T00:30:40.224Z,9.40
2018-12-07T00:33:08.679Z,9.40
2018-12-07T00:35:37.402Z,9.30
2018-12-07T00:38:05.872Z,9.30
2018-12-07T00:40:34.199Z,9.30
2018-12-07T00:43:02.539Z,9.30
2018-12-07T00:45:30.987Z,9.30
2018-12-07T00:47:59.215Z,9.30
2018-12-07T00:50:27.535Z,9.30
2018-12-07T00:52:55.806Z,9.30
2018-12-07T00:55:37.578Z,9.30
2018-12-07T00:58:06.338Z,9.30
2018-12-07T01:00:34.809Z,9.30
2018-12-07T01:03:03.418Z,9.30
2018-12-07T01:05:31.823Z,9.30
2018-12-07T01:08:00.257Z,9.30
2018-12-07T01:10:28.802Z,9.30
2018-12-07T01:12:57.106Z,9.40
2018-12-07T01:15:25.827Z,9.40
2018-12-07T01:17:54.255Z,9.30
2018-12-07T01:20:22.797Z,9.30
2018-12-07T01:22:51.362Z,9.30
2018-12-07T01:25:19.702Z,9.30
2018-12-07T01:27:48.187Z,9.20
2018-12-07T01:30:16.466Z,9.30
2018-12-07T01:32:44.843Z,9.30
2018-12-07T01:35:13.346Z,9.30
2018-12-07T01:37:41.678Z,9.30
2018-12-07T01:40:10.062Z,9.30
2018-12-07T01:42:38.459Z,9.20
2018-12-07T01:45:06.857Z,9.20
2018-12-07T01:47:39.626Z,9.20
2018-12-07T01:50:07.904Z,9.20
2018-12-07T01:52:36.225Z,9.20
2018-12-07T01:55:04.900Z,9.20
2018-12-07T01:57:33.425Z,9.20
2018-12-07T02:00:01.795Z,9.20
2018-12-07T02:02:30.190Z,9.10
2018-12-07T02:04:58.455Z,9.10
2018-12-07T02:07:31.327Z,9.10
2018-12-07T02:10:00.030Z,9.00
2018-12-07T02:12:28.357Z,9.10
2018-12-07T02:14:56.743Z,9.00
2018-12-07T02:17:25.093Z,9.10
2018-12-07T02:19:53.475Z,9.10
2018-12-07T02:22:21.759Z,9.00
2018-12-07T02:24:50.123Z,9.00
2018-12-07T02:27:18.505Z,9.00
2018-12-07T02:29:46.851Z,9.00
2018-12-07T02:32:15.398Z,9.00
2018-12-07T02:34:43.785Z,8.90
2018-12-07T02:37:12.159Z,8.90
2018-12-07T02:39:40.508Z,9.00
2018-12-07T02:42:08.826Z,9.00
2018-12-07T02:44:37.108Z,8.90
2018-12-07T02:47:05.569Z,9.00
2018-12-07T02:49:33.899Z,9.00
2018-12-07T02:52:02.295Z,9.00
2018-12-07T02:54:30.735Z,9.00
2018-12-07T02:56:59.554Z,9.00
2018-12-07T02:59:27.893Z,9.00
2018-12-07T03:01:56.140Z,8.90
2018-12-07T03:04:24.683Z,8.90
2018-12-07T03:06:53.146Z,8.90
2018-12-07T03:09:21.439Z,8.90
2018-12-07T03:11:49.802Z,8.90
2018-12-07T03:14:18.647Z,8.90
2018-12-07T03:16:47.133Z,8.90
2018-12-07T03:19:15.440Z,8.90
2018-12-07T03:21:44.458Z,8.90
2018-12-07T03:24:12.815Z,8.90
2018-12-07T03:26:42.518Z,8.90
2018-12-07T03:29:10.882Z,8.80
2018-12-07T03:31:39.263Z,8.80
2018-12-07T03:34:07.610Z,8.80
2018-12-07T03:36:36.400Z,8.80
2018-12-07T03:39:06.610Z,8.80
2018-12-07T03:41:35.146Z,8.80
2018-12-07T03:44:03.665Z,8.80
2018-12-07T03:46:32.004Z,8.80
2018-12-07T03:49:00.406Z,8.80
2018-12-07T03:51:28.865Z,8.80
2018-12-07T03:53:57.348Z,8.70
2018-12-07T03:56:25.774Z,8.70
2018-12-07T03:58:58.080Z,8.70
2018-12-07T04:01:26.637Z,8.70
2018-12-07T04:03:55.006Z,8.70
2018-12-07T04:06:23.433Z,8.70
2018-12-07T04:08:51.695Z,8.60
2018-12-07T04:11:20.068Z,8.60
2018-12-07T04:13:48.465Z,8.70
2018-12-07T04:16:16.908Z,8.60
2018-12-07T04:18:45.300Z,8.60
2018-12-07T04:21:13.591Z,8.60
2018-12-07T04:23:42.095Z,8.60
2018-12-07T04:26:10.586Z,8.60
2018-12-07T04:28:38.955Z,8.60
2018-12-07T04:31:07.303Z,8.60
2018-12-07T04:33:35.681Z,8.60
2018-12-07T04:36:07.378Z,8.60
2018-12-07T04:38:34.453Z,8.60
2018-12-07T04:41:02.895Z,8.50
2018-12-07T04:43:31.294Z,8.50
2018-12-07T04:45:59.669Z,8.50
2018-12-07T04:48:28.189Z,8.50
2018-12-07T04:50:56.567Z,8.50
2018-12-07T04:53:25.125Z,8.50
2018-12-07T04:55:53.579Z,8.50
2018-12-07T04:58:22.022Z,8.50
2018-12-07T05:00:50.313Z,8.40
2018-12-07T05:03:18.630Z,8.40
2018-12-07T05:05:47.115Z,8.40
2018-12-07T05:08:15.452Z,8.40
2018-12-07T05:10:43.926Z,8.40
2018-12-07T05:13:12.407Z,8.40
2018-12-07T05:15:41.114Z,8.40
2018-12-07T05:18:09.426Z,8.40
2018-12-07T05:20:37.810Z,8.40
2018-12-07T05:23:06.108Z,8.40
2018-12-07T05:25:34.494Z,8.40
2018-12-07T05:28:02.923Z,8.30
2018-12-07T05:30:31.310Z,8.30
2018-12-07T05:32:59.802Z,8.30
2018-12-07T05:35:28.390Z,8.30
2018-12-07T05:37:56.783Z,8.40
2018-12-07T05:40:25.372Z,8.40
2018-12-07T05:42:53.963Z,8.40
2018-12-07T05:45:22.607Z,8.30
2018-12-07T05:47:50.991Z,8.30
2018-12-07T05:50:19.425Z,8.30
2018-12-07T05:52:47.829Z,8.30
2018-12-07T05:55:16.143Z,8.30
2018-12-07T05:57:44.498Z,8.30
2018-12-07T06:00:13.082Z,8.20
2018-12-07T06:02:41.465Z,8.30
2018-12-07T06:05:09.865Z,8.20
2018-12-07T06:07:38.327Z,8.20
2018-12-07T06:10:06.703Z,8.20
2018-12-07T06:12:35.051Z,8.20
2018-12-07T06:15:03.742Z,8.20
2018-12-07T06:17:32.178Z,8.20
2018-12-07T06:20:00.596Z,8.20
2018-12-07T06:22:28.994Z,8.20
2018-12-07T06:24:57.428Z,8.20
2018-12-07T06:27:25.825Z,8.20
2018-12-07T06:29:54.177Z,8.20
2018-12-07T06:32:22.647Z,8.20
2018-12-07T06:34:51.056Z,8.20
2018-12-07T06:37:19.495Z,8.20
2018-12-07T06:39:47.940Z,8.20
2018-12-07T06:42:16.433Z,8.20
2018-12-07T06:44:44.914Z,8.20
2018-12-07T06:47:13.543Z,8.10
2018-12-07T06:49:41.986Z,8.10
2018-12-07T06:52:10.364Z,8.00
2018-12-07T06:54:38.627Z,8.00
2018-12-07T06:57:07.076Z,8.00
2018-12-07T06:59:35.426Z,8.00
2018-12-07T07:02:03.925Z,8.00
2018-12-07T07:04:32.259Z,8.00
2018-12-07T07:07:00.618Z,8.00
2018-12-07T07:09:29.106Z,8.10
2018-12-07T07:11:57.403Z,8.10
2018-12-07T07:14:38.952Z,8.10
2018-12-07T07:17:07.327Z,8.00
2018-12-07T07:19:35.916Z,8.10
2018-12-07T07:22:04.334Z,8.10
2018-12-07T07:24:32.851Z,8.10
2018-12-07T07:27:01.166Z,8.10
2018-12-07T07:29:29.537Z,8.20
2018-12-07T07:31:57.870Z,8.10
2018-12-07T07:34:26.221Z,8.10
2018-12-07T07:36:54.506Z,8.10
2018-12-07T07:39:22.989Z,8.20
2018-12-07T07:41:51.342Z,8.20
2018-12-07T07:44:20.015Z,8.20
2018-12-07T07:46:48.416Z,8.10
2018-12-07T07:49:16.903Z,8.10
2018-12-07T07:51:45.718Z,8.10
2018-12-07T07:54:14.199Z,8.20
2018-12-07T07:56:43.759Z,8.20
2018-12-07T07:59:12.167Z,8.20
2018-12-07T08:01:40.662Z,8.20
2018-12-07T08:04:08.922Z,8.20
2018-12-07T08:06:37.240Z,8.20
2018-12-07T08:09:07.234Z,8.20
2018-12-07T08:11:35.646Z,8.30
2018-12-07T08:14:03.987Z,8.30
2018-12-07T08:16:32.347Z,8.30
2018-12-07T08:19:00.668Z,8.30
2018-12-07T08:21:29.010Z,8.40
2018-12-07T08:23:57.832Z,8.40
2018-12-07T08:26:26.311Z,8.50
2018-12-07T08:28:54.691Z,8.60
2018-12-07T08:31:23.080Z,8.60
2018-12-07T08:33:51.627Z,8.70
2018-12-07T08:36:20.006Z,8.80
2018-12-07T08:38:48.335Z,8.90
2018-12-07T08:41:16.718Z,9.00
2018-12-07T08:43:45.001Z,9.00
2018-12-07T08:46:13.326Z,9.10
2018-12-07T08:48:41.779Z,9.20
2018-12-07T08:51:10.244Z,9.30
2018-12-07T08:53:38.578Z,9.40
2018-12-07T08:56:07.200Z,9.40
2018-12-07T08:58:35.481Z,9.50
2018-12-07T09:01:03.762Z,9.50
2018-12-07T09:03:32.265Z,9.60
2018-12-07T09:06:00.683Z,9.70
2018-12-07T09:08:29.062Z,9.80
2018-12-07T09:10:57.401Z,9.90
2018-12-07T09:13:25.990Z,10.00
2018-12-07T09:15:54.311Z,10.00
2018-12-07T09:18:22.610Z,10.10
2018-12-07T09:20:54.188Z,10.20
2018-12-07T09:23:21.394Z,10.30
2018-12-07T09:25:50.066Z,10.30
2018-12-07T09:28:18.632Z,10.40
2018-12-07T09:30:47.294Z,10.40
2018-12-07T09:33:15.722Z,10.40
2018-12-07T09:35:44.056Z,10.40
2018-12-07T09:38:13.283Z,10.50
2018-12-07T09:40:41.847Z,10.40
2018-12-07T09:43:10.290Z,10.50
2018-12-07T09:45:38.903Z,10.50
2018-12-07T09:48:07.415Z,10.50
2018-12-07T09:50:35.795Z,10.50
2018-12-07T09:53:04.140Z,10.50
2018-12-07T09:55:32.535Z,10.60
2018-12-07T09:58:00.886Z,10.80
2018-12-07T10:00:29.311Z,10.90
2018-12-07T10:02:57.698Z,11.00
2018-12-07T10:05:26.190Z,11.00
2018-12-07T10:07:54.663Z,11.10
2018-12-07T10:10:23.157Z,11.10
2018-12-07T10:12:51.518Z,11.10
2018-12-07T10:15:20.268Z,11.10
2018-12-07T10:17:48.670Z,11.10
2018-12-07T10:20:17.075Z,11.20
2018-12-07T10:22:45.468Z,11.20
2018-12-07T10:25:13.790Z,11.20
2018-12-07T10:27:42.101Z,11.20
2018-12-07T10:30:10.494Z,11.20
2018-12-07T10:32:38.868Z,11.20
2018-12-07T10:35:07.287Z,11.20
2018-12-07T10:37:35.891Z,11.10
2018-12-07T10:40:05.016Z,11.10
2018-12-07T10:42:33.359Z,11.20
2018-12-07T10:45:01.904Z,11.30
2018-12-07T10:47:30.198Z,11.40
2018-12-07T10:49:58.626Z,11.50
2018-12-07T10:52:27.043Z,11.60
2018-12-07T10:54:55.293Z,11.80
2018-12-07T10:57:23.705Z,11.90
2018-12-07T10:59:52.109Z,12.00
2018-12-07T11:02:26.004Z,12.00
2018-12-07T11:04:59.767Z,11.90
2018-12-07T11:07:33.525Z,11.80
2018-12-07T11:10:07.398Z,11.80
2018-12-07T11:12:41.228Z,11.70
2018-12-07T11:15:26.675Z,11.60
2018-12-07T11:18:00.387Z,11.60
2018-12-07T11:20:34.179Z,11.50
2018-12-07T11:23:07.958Z,11.50
2018-12-07T11:27:47.771Z,11.50
2018-12-07T11:30:21.798Z,11.60
2018-12-07T11:32:55.408Z,11.60
2018-12-07T11:35:28.581Z,11.70
2018-12-07T11:37:57.007Z,11.80
2018-12-07T11:40:26.138Z,12.00
2018-12-07T11:42:54.550Z,12.20
2018-12-07T11:45:23.115Z,12.40
2018-12-07T11:47:51.367Z,12.60
2018-12-07T11:50:20.083Z,12.70
2018-12-07T11:52:48.407Z,12.80
2018-12-07T11:55:16.691Z,13.00
2018-12-07T11:57:45.128Z,13.10
2018-12-07T12:00:13.715Z,13.20
2018-12-07T12:02:42.014Z,13.40
2018-12-07T12:05:10.409Z,13.50
2018-12-07T12:07:38.834Z,13.60
2018-12-07T12:10:07.416Z,13.70
2018-12-07T12:12:35.877Z,13.70
2018-12-07T12:15:29.887Z,13.90
2018-12-07T12:17:58.247Z,14.00
2018-12-07T12:20:27.104Z,14.20
2018-12-07T12:22:55.896Z,14.30
2018-12-07T12:25:25.182Z,14.40
2018-12-07T12:27:53.557Z,14.60
2018-12-07T12:30:21.995Z,14.70
2018-12-07T12:32:50.378Z,14.80
2018-12-07T12:35:18.773Z,14.90
2018-12-07T12:37:47.095Z,15.00
2018-12-07T12:40:15.337Z,15.10
2018-12-07T12:42:43.611Z,15.20
2018-12-07T12:45:12.217Z,15.30
2018-12-07T12:47:40.735Z,15.40
2018-12-07T12:50:13.595Z,15.40
2018-12-07T12:52:41.915Z,15.50
2018-12-07T12:55:10.231Z,15.60
2018-12-07T12:57:38.543Z,15.70
2018-12-07T13:00:06.915Z,15.70
2018-12-07T13:02:35.236Z,15.80
2018-12-07T13:05:03.947Z,15.90
2018-12-07T13:07:32.275Z,15.90
2018-12-07T13:10:00.695Z,15.90
2018-12-07T13:12:29.131Z,15.90
2018-12-07T13:15:26.419Z,16.00
2018-12-07T13:17:54.981Z,16.10
2018-12-07T13:20:23.753Z,16.10
2018-12-07T13:22:52.137Z,16.10
2018-12-07T13:25:20.758Z,16.10
2018-12-07T13:27:49.063Z,16.10
2018-12-07T13:30:17.405Z,16.20
2018-12-07T13:32:45.757Z,16.20
2018-12-07T13:35:14.161Z,16.20
2018-12-07T13:37:42.511Z,16.20
2018-12-07T13:40:11.045Z,16.20
2018-12-07T13:42:39.747Z,16.30
2018-12-07T13:45:08.964Z,16.30
2018-12-07T13:47:37.694Z,16.30
2018-12-07T13:50:11.955Z,16.30
2018-12-07T13:52:40.553Z,16.30
2018-12-07T13:55:09.594Z,16.30
2018-12-07T13:57:38.164Z,16.40
2018-12-07T14:00:07.924Z,16.40
2018-12-07T14:02:36.843Z,16.30
2018-12-07T14:05:06.306Z,16.20
2018-12-07T14:07:34.853Z,16.00
2018-12-07T14:10:03.615Z,16.00
2018-12-07T14:12:32.291Z,16.10
2018-12-07T14:15:42.583Z,16.10
2018-12-07T14:18:11.294Z,16.10
2018-12-07T14:20:39.934Z,16.00
2018-12-07T14:23:08.531Z,16.00
2018-12-07T14:25:37.110Z,16.00
2018-12-07T14:28:05.644Z,15.90
2018-12-07T14:30:34.129Z,15.90
2018-12-07T14:33:02.690Z,15.80
2018-12-07T14:35:31.819Z,15.70
2018-12-07T14:38:00.259Z,15.70
2018-12-07T14:40:28.839Z,15.60
2018-12-07T14:42:57.343Z,15.50
2018-12-07T14:45:26.415Z,15.40
2018-12-07T14:47:54.925Z,15.30
2018-12-07T14:50:23.584Z,15.20
2018-12-07T14:52:52.217Z,15.10
2018-12-07T14:55:21.058Z,14.90
2018-12-07T14:57:49.765Z,14.90
2018-12-07T15:00:18.471Z,14.90
2018-12-07T15:02:47.015Z,14.80
2018-12-07T15:05:15.438Z,14.70
2018-12-07T15:07:44.007Z,14.60
2018-12-07T15:10:12.519Z,14.50
2018-12-07T15:12:41.028Z,14.50
2018-12-07T15:15:56.069Z,14.40
2018-12-07T15:18:24.416Z,14.40
2018-12-07T15:20:52.935Z,14.30
2018-12-07T15:23:21.365Z,14.30
2018-12-07T15:25:49.851Z,14.20
2018-12-07T15:28:18.535Z,14.10
2018-12-07T15:30:46.998Z,14.10
2018-12-07T15:33:15.488Z,14.10
2018-12-07T15:35:44.153Z,14.00
2018-12-07T15:38:12.740Z,14.00
2018-12-07T15:40:41.226Z,14.00
2018-12-07T15:43:09.732Z,13.90
2018-12-07T15:45:38.171Z,13.90
2018-12-07T15:48:06.494Z,13.80
2018-12-07T15:50:35.043Z,13.80
2018-12-07T15:53:03.547Z,13.80
2018-12-07T15:55:32.064Z,13.70
2018-12-07T15:58:01.032Z,13.70
2018-12-07T16:00:29.866Z,13.70
2018-12-07T16:02:58.414Z,13.70
2018-12-07T16:05:26.949Z,13.70
2018-12-07T16:07:55.263Z,13.70
2018-12-07T16:10:24.008Z,13.70
2018-12-07T16:12:52.491Z,13.70
2018-12-07T16:15:52.739Z,13.60
2018-12-07T16:18:21.631Z,13.60
2018-12-07T16:20:50.361Z,13.50
2018-12-07T16:23:19.260Z,13.50
2018-12-07T16:25:47.969Z,13.50
2018-12-07T16:28:16.644Z,13.50
2018-12-07T16:30:45.193Z,13.40
2018-12-07T16:33:13.822Z,13.50
2018-12-07T16:35:42.447Z,13.40
2018-12-07T16:38:11.082Z,13.50
2018-12-07T16:40:39.491Z,13.40
2018-12-07T16:43:07.996Z,13.40
2018-12-07T16:45:36.478Z,13.30
2018-12-07T16:48:05.079Z,13.40
2018-12-07T16:50:36.341Z,13.40
2018-12-07T16:53:04.922Z,13.30
2018-12-07T16:55:33.415Z,13.30
2018-12-07T16:58:01.867Z,13.30
2018-12-07T17:00:30.392Z,13.30
2018-12-07T17:02:59.096Z,13.30
2018-12-07T17:05:27.957Z,13.30
2018-12-07T17:07:56.661Z,13.30
2018-12-07T17:10:25.664Z,13.30
2018-12-07T17:12:54.125Z,13.30
2018-12-07T17:15:58.978Z,13.30
2018-12-07T17:18:27.529Z,13.30
2018-12-07T17:20:56.020Z,13.20
2018-12-07T17:23:24.476Z,13.20
2018-12-07T17:25:53.011Z,13.20
2018-12-07T17:28:21.399Z,13.20
2018-12-07T17:30:49.902Z,13.20
2018-12-07T17:33:18.605Z,13.20
2018-12-07T17:35:47.097Z,13.20
2018-12-07T17:38:15.610Z,13.20
2018-12-07T17:40:44.409Z,13.20
2018-12-07T17:43:12.741Z,13.20
2018-12-07T17:45:41.333Z,13.10
2018-12-07T17:48:10.005Z,13.20
2018-12-07T17:50:38.546Z,13.10
2018-12-07T17:53:07.027Z,13.10
2018-12-07T17:55:35.530Z,13.10
2018-12-07T17:58:03.885Z,13.10
2018-12-07T18:00:32.375Z,13.00
2018-12-07T18:03:00.788Z,13.10
2018-12-07T18:05:29.370Z,13.00
2018-12-07T18:07:57.764Z,13.00
2018-12-07T18:10:26.834Z,13.00
2018-12-07T18:12:55.426Z,13.00
2018-12-07T18:15:55.015Z,13.00
2018-12-07T18:18:23.387Z,13.00
2018-12-07T18:20:51.774Z,13.00
2018-12-07T18:23:20.174Z,13.00
2018-12-07T18:25:48.593Z,13.00
2018-12-07T18:28:16.971Z,12.90
2018-12-07T18:30:45.441Z,13.00
2018-12-07T18:33:13.903Z,13.00
2018-12-07T18:35:43.945Z,12.90
2018-12-07T18:38:12.522Z,12.90
2018-12-07T18:40:41.458Z,12.90
2018-12-07T18:43:09.950Z,12.90
2018-12-07T18:45:39.786Z,12.90
2018-12-07T18:48:09.049Z,12.90
2018-12-07T18:50:37.798Z,12.90
2018-12-07T18:53:06.345Z,12.90
2018-12-07T18:55:34.941Z,12.90
2018-12-07T18:58:03.577Z,12.90
2018-12-07T19:00:32.054Z,12.90
2018-12-07T19:03:00.835Z,12.90
2018-12-07T19:05:29.562Z,12.80
2018-12-07T19:07:57.946Z,12.90
2018-12-07T19:10:27.086Z,12.80
2018-12-07T19:12:55.623Z,12.80
2018-12-07T19:18:48.396Z,12.70
2018-12-07T19:21:16.788Z,12.70
2018-12-07T19:23:45.586Z,12.70
2018-12-07T19:26:14.166Z,12.70
2018-12-07T19:28:42.579Z,12.70
2018-12-07T19:31:11.001Z,12.70
2018-12-07T19:33:39.607Z,12.70
2018-12-07T19:36:08.171Z,12.70
2018-12-07T19:38:36.848Z,12.70
2018-12-07T19:41:05.473Z,12.70
2018-12-07T19:43:34.206Z,12.70
2018-12-07T19:46:02.867Z,12.70
2018-12-07T19:48:31.400Z,12.70
2018-12-07T19:51:04.336Z,12.70
2018-12-07T19:53:33.096Z,12.70
2018-12-07T19:56:01.692Z,12.60
2018-12-07T19:58:30.753Z,12.60
2018-12-07T20:00:59.468Z,12.60
2018-12-07T20:03:28.130Z,12.60
2018-12-07T20:05:56.790Z,12.70
2018-12-07T20:08:25.447Z,12.60
2018-12-07T20:10:53.905Z,12.60
2018-12-07T20:13:22.382Z,12.60
2018-12-07T20:16:27.565Z,12.60
2018-12-07T20:18:56.422Z,12.60
2018-12-07T20:21:24.886Z,12.60
2018-12-07T20:23:54.756Z,12.60
2018-12-07T20:26:23.326Z,12.60
2018-12-07T20:28:51.809Z,12.60
2018-12-07T20:31:20.306Z,12.60
2018-12-07T20:33:49.204Z,12.70
2018-12-07T20:36:17.998Z,12.60
2018-12-07T20:38:46.824Z,12.70
2018-12-07T20:41:15.265Z,12.70
2018-12-07T20:43:43.678Z,12.60
2018-12-07T20:46:12.753Z,12.60
2018-12-07T20:48:41.220Z,12.60
2018-12-07T20:51:10.034Z,12.60
2018-12-07T20:53:38.843Z,12.60
2018-12-07T20:56:07.499Z,12.60
2018-12-07T20:58:36.351Z,12.60
2018-12-07T21:01:05.279Z,12.60
2018-12-07T21:03:52.550Z,12.60
2018-12-07T21:06:48.177Z,12.60
2018-12-07T21:09:27.214Z,12.60
2018-12-07T21:12:03.828Z,12.50
2018-12-07T21:15:02.496Z,12.50
2018-12-07T21:17:35.227Z,12.50
2018-12-07T21:20:14.866Z,12.60
2018-12-07T21:22:43.553Z,12.60
2018-12-07T21:25:12.033Z,12.60
2018-12-07T21:27:44.140Z,12.60
2018-12-07T21:31:01.859Z,12.50
2018-12-07T21:34:39.130Z,12.60
2018-12-07T21:37:07.638Z,12.60
2018-12-07T21:39:42.257Z,12.60
2018-12-07T21:42:11.171Z,12.60
2018-12-07T21:44:39.672Z,12.60
2018-12-07T21:47:08.645Z,12.60
2018-12-07T21:49:49.143Z,12.50
2018-12-07T21:52:28.190Z,12.50
2018-12-07T21:54:57.203Z,12.50
2018-12-07T21:57:25.846Z,12.50
2018-12-07T21:59:54.913Z,12.50
2018-12-07T22:02:24.825Z,12.50
2018-12-07T22:04:53.779Z,12.60
2018-12-07T22:07:22.628Z,12.50
2018-12-07T22:09:50.990Z,12.50
2018-12-07T22:12:19.522Z,12.50
2018-12-07T22:15:22.557Z,12.50
2018-12-07T22:17:51.290Z,12.50
2018-12-07T22:20:19.724Z,12.50
2018-12-07T22:22:48.360Z,12.60
2018-12-07T22:25:16.879Z,12.60
2018-12-07T22:27:45.568Z,12.60
2018-12-07T22:30:14.192Z,12.60
2018-12-07T22:32:42.911Z,12.60
2018-12-07T22:35:12.020Z,12.60
2018-12-07T22:37:40.955Z,12.60
2018-12-07T22:40:09.975Z,12.60
2018-12-07T22:42:38.741Z,12.60
2018-12-07T22:45:07.414Z,12.60
2018-12-07T22:47:36.182Z,12.70
2018-12-07T22:50:05.167Z,12.70
2018-12-07T22:52:33.899Z,12.60
2018-12-07T22:55:02.433Z,12.60
2018-12-07T22:57:30.906Z,12.60
2018-12-07T22:59:59.325Z,12.70
2018-12-07T23:02:27.783Z,12.70
2018-12-07T23:04:56.180Z,12.70
2018-12-07T23:07:24.530Z,12.70
2018-12-07T23:09:52.897Z,12.70
2018-12-07T23:12:21.321Z,12.70
2018-12-07T23:14:49.770Z,12.70
2018-12-07T23:17:18.226Z,12.70
2018-12-07T23:19:46.636Z,12.70
2018-12-07T23:22:15.084Z,12.70
2018-12-07T23:24:43.485Z,12.70
2018-12-07T23:27:11.928Z,12.70
2018-12-07T23:29:40.417Z,12.70
2018-12-07T23:32:08.815Z,12.70
2018-12-07T23:34:37.218Z,12.70
2018-12-07T23:37:05.893Z,12.70
2018-12-07T23:39:35.243Z,12.70
2018-12-07T23:42:03.714Z,12.70
2018-12-07T23:44:32.529Z,12.70
2018-12-07T23:47:00.894Z,12.70
2018-12-07T23:49:29.718Z,12.70
2018-12-07T23:51:58.409Z,12.70
2018-12-07T23:54:27.097Z,12.70
2018-12-07T23:56:55.550Z,12.70
2018-12-07T23:59:23.902Z,12.70
